Stations météo

réclame
Mon MeteoGroup
Blahammaren A, Suède (2210): Température de l'air & dewpoint: 12.02.2019 01:00:00 - 18.02.2019 01:00:00 (CET)Blahammaren A, Suède (2210): Vitesse du vent & gusts: 12.02.2019 01:00:00 - 18.02.2019 01:00:00 (CET)Blahammaren A, Suède (2210): Direction du vent: 12.02.2019 01:00:00 - 18.02.2019 01:00:00 (CET)
Date & Time tt [°C] td [°C] ff [km/h] ff [knt] fx [km/h] fx [knt] dd
18.02.2019 01:00:00 -1,8 -2,5 58 31 - - S
18.02.2019 00:00:00 -1,3 -2,4 55 30 70 38 S
17.02.2019 23:00:00 -1,3 -2,4 59 32 70 38 S
17.02.2019 22:00:00 -1,8 -2,6 49 26 60 33 S
17.02.2019 21:00:00 -2,5 -3,3 51 28 65 35 S
17.02.2019 20:00:00 -3,4 -4,2 50 27 63 34 S
17.02.2019 19:00:00 -4,7 -5,5 41 22 61 33 SE
17.02.2019 18:00:00 -3,9 -4,6 32 17 50 27 S
17.02.2019 17:00:00 -4,7 -5,4 34 18 40 22 SSE
17.02.2019 16:00:00 -4,2 -5,2 34 18 61 33 SSE
17.02.2019 15:00:00 -4,8 -5,9 55 30 71 39 S
17.02.2019 14:00:00 -4,9 -6,4 24 13 58 31 S
17.02.2019 13:00:00 -5,7 -6,8 47 26 57 31 S
17.02.2019 12:00:00 -7,2 -8,1 38 21 50 27 SE
17.02.2019 11:00:00 -7,4 -8,4 29 16 35 19 SE
17.02.2019 10:00:00 -7,5 -8,4 22 12 26 14 SSE
17.02.2019 09:00:00 -7,7 -8,6 23 12 25 13 SSE
17.02.2019 08:00:00 -7,5 -8,4 11 6 17 9 SE
17.02.2019 07:00:00 -6,9 -7,7 4 2 16 9 NNE
17.02.2019 06:00:00 -6,9 -7,7 14 8 26 14 NW
17.02.2019 05:00:00 -6,7 -7,5 19 11 44 24 WNW
17.02.2019 04:00:00 -6,9 -7,7 32 17 45 24 NW
17.02.2019 03:00:00 -6,7 -7,5 23 12 50 27 NW
17.02.2019 02:00:00 -6,1 -6,8 42 23 51 28 WNW
17.02.2019 01:00:00 -5,8 -6,5 37 20 55 30 WNW
17.02.2019 00:00:00 -6,0 -6,7 42 23 58 31 NW
16.02.2019 23:00:00 -6,1 -6,9 42 23 58 31 WNW
16.02.2019 22:00:00 -6,2 -7,0 44 24 66 36 NW
16.02.2019 21:00:00 -5,7 -6,4 44 24 - - WNW
16.02.2019 20:00:00 -5,8 -6,5 - - - - -
16.02.2019 19:00:00 -5,3 -6,0 - - - - -
16.02.2019 18:00:00 -5,4 -6,1 42 23 - - WNW
16.02.2019 17:00:00 -5,0 -5,5 42 23 - - WNW
16.02.2019 16:00:00 -4,7 -5,2 43 23 - - NNW
16.02.2019 15:00:00 -4,6 -5,1 46 25 66 36 NW
16.02.2019 14:00:00 -4,8 -5,5 30 16 64 35 WNW
16.02.2019 13:00:00 -3,9 -4,4 42 23 67 36 WNW
16.02.2019 12:00:00 -3,4 -3,9 - - - - -
16.02.2019 11:00:00 -3,2 -3,6 41 22 52 28 WNW
16.02.2019 10:00:00 -3,4 -3,8 35 19 52 28 WNW
16.02.2019 09:00:00 -2,9 -3,3 34 18 53 28 WNW
16.02.2019 08:00:00 -3,0 -3,4 36 19 66 36 WNW
16.02.2019 07:00:00 -2,1 -2,4 40 22 56 31 WNW
16.02.2019 06:00:00 -0,6 -1,2 29 16 50 27 W
16.02.2019 05:00:00 -0,4 -4,6 25 13 44 24 WNW
16.02.2019 04:00:00 1,9 -6,2 39 21 56 30 SW
16.02.2019 03:00:00 2,4 -6,2 45 25 58 31 SSW
16.02.2019 02:00:00 1,2 -5,7 49 26 68 37 S
16.02.2019 01:00:00 2,0 -6,1 57 31 69 38 S
16.02.2019 00:00:00 1,5 -5,4 48 26 61 33 S
15.02.2019 23:00:00 1,8 -5,1 49 26 68 37 S
15.02.2019 22:00:00 2,3 -5,1 54 29 64 35 S
15.02.2019 21:00:00 - -4,7 49 26 67 36 S
15.02.2019 20:00:00 - -4,3 51 27 66 36 SSW
15.02.2019 19:00:00 2,9 -4,3 52 28 61 33 S
15.02.2019 18:00:00 2,8 -4,0 46 25 54 29 S
15.02.2019 17:00:00 - -3,4 44 24 57 31 S
15.02.2019 16:00:00 - -2,7 45 24 58 31 S
15.02.2019 15:00:00 2,7 -2,0 46 25 59 32 S
15.02.2019 14:00:00 2,3 -1,7 43 23 51 28 S
15.02.2019 13:00:00 2,0 -1,3 34 18 39 21 S
15.02.2019 12:00:00 1,5 1,1 26 14 34 19 SSW
15.02.2019 11:00:00 1,1 1,1 23 13 55 30 SW
15.02.2019 10:00:00 1,9 1,9 40 22 57 31 W
15.02.2019 09:00:00 1,5 1,5 33 18 59 32 WSW
15.02.2019 08:00:00 1,3 1,3 34 19 69 37 W
15.02.2019 07:00:00 1,5 1,5 40 21 81 44 W
15.02.2019 06:00:00 0,7 0,6 38 21 70 38 W
15.02.2019 05:00:00 -1,4 -1,5 33 18 49 27 SW
15.02.2019 04:00:00 -1,9 -2,2 32 17 42 23 SW
15.02.2019 03:00:00 -1,9 -2,2 30 16 51 28 WSW
15.02.2019 02:00:00 -1,9 -2,2 30 16 51 28 WSW
15.02.2019 01:00:00 -1,5 -2,5 34 18 62 34 W
15.02.2019 00:00:00 -1,3 -3,7 37 20 71 38 W
14.02.2019 23:00:00 -1,2 -3,1 40 21 85 46 W
14.02.2019 22:00:00 -1,2 -2,3 41 22 84 45 W
14.02.2019 21:00:00 -1,1 -2,2 42 23 79 43 W
14.02.2019 20:00:00 -1,1 -2,2 45 25 100 54 W
14.02.2019 19:00:00 -0,8 -2,2 51 28 98 53 WNW
14.02.2019 18:00:00 -0,7 -2,3 54 29 103 56 WNW
14.02.2019 17:00:00 -0,1 -2,6 56 31 105 57 WNW
14.02.2019 16:00:00 0,9 -2,5 56 30 102 55 W
14.02.2019 15:00:00 1,4 -3,5 45 25 77 42 W
14.02.2019 14:00:00 1,1 -1,8 44 24 109 59 WNW
14.02.2019 13:00:00 0,9 0,6 50 27 77 41 WNW
14.02.2019 12:00:00 1,1 -0,8 38 20 80 43 SW
14.02.2019 11:00:00 1,7 -0,7 60 32 79 43 SSW
14.02.2019 10:00:00 -0,1 -1,8 65 35 82 44 SSW
14.02.2019 09:00:00 -0,6 -2,2 56 30 73 40 S
14.02.2019 08:00:00 -1,2 -3,1 51 28 66 36 S
14.02.2019 07:00:00 -0,9 -2,6 57 31 66 35 S
14.02.2019 06:00:00 -0,9 -2,0 50 27 69 37 S
14.02.2019 05:00:00 -1,2 -1,6 58 31 69 37 S
14.02.2019 04:00:00 -1,6 -1,9 59 32 72 39 S
14.02.2019 03:00:00 -2,3 -2,6 54 29 68 37 SSW
14.02.2019 02:00:00 -2,7 -3,0 53 29 68 37 S
14.02.2019 01:00:00 -2,7 -3,0 39 21 55 30 SSW
14.02.2019 00:00:00 -3,4 -3,8 33 18 44 24 S
13.02.2019 23:00:00 -3,5 -3,9 27 14 37 20 SSW
13.02.2019 22:00:00 -3,5 -3,9 7 4 51 28 SW
13.02.2019 21:00:00 -3,8 -4,2 19 11 38 20 W
13.02.2019 20:00:00 -4,3 -4,8 25 14 54 29 WNW
13.02.2019 19:00:00 -3,4 -3,8 26 14 - - W
13.02.2019 18:00:00 -2,9 -3,2 - - - - -
13.02.2019 17:00:00 -2,8 -3,1 - - - - -
13.02.2019 16:00:00 -2,8 -3,1 - - - - -
13.02.2019 15:00:00 -3,0 -3,4 - - - - -
13.02.2019 14:00:00 - - - - - - -
13.02.2019 13:00:00 - - - - - - -
13.02.2019 12:00:00 -1,9 -2,0 - - 103 56 -
13.02.2019 11:00:00 -1,6 -1,7 40 21 88 48 W
13.02.2019 10:00:00 -1,9 -2,2 39 21 106 57 W
13.02.2019 09:00:00 -1,7 -1,8 44 24 88 47 W
13.02.2019 08:00:00 -2,0 -2,3 39 21 100 54 W
13.02.2019 07:00:00 -2,3 -2,6 53 28 105 57 WNW
13.02.2019 06:00:00 -1,9 -2,2 - - - - -
13.02.2019 05:00:00 -1,8 -2,1 59 32 104 56 WNW
13.02.2019 04:00:00 -1,9 -2,2 44 24 95 51 W
13.02.2019 03:00:00 -2,2 -2,5 19 10 62 34 WSW
13.02.2019 02:00:00 -4,1 -4,6 16 9 48 26 SW
13.02.2019 01:00:00 -3,9 -4,3 19 11 50 27 SSW
13.02.2019 00:00:00 -4,1 -4,6 30 16 52 28 SSW
12.02.2019 23:00:00 -4,2 -4,7 46 25 65 35 S
12.02.2019 22:00:00 -4,7 -5,2 48 26 66 36 S
12.02.2019 21:00:00 -4,9 -5,4 58 31 72 39 S
12.02.2019 20:00:00 -4,9 -5,4 55 30 67 36 S
12.02.2019 19:00:00 -5,4 -6,1 56 31 68 37 S
12.02.2019 18:00:00 -6,1 -6,8 54 29 66 36 S
12.02.2019 17:00:00 -6,9 -7,7 55 30 65 35 S
12.02.2019 16:00:00 -7,1 -7,9 44 24 50 27 SSW
12.02.2019 15:00:00 -5,7 -6,4 19 10 - - SSW
12.02.2019 14:00:00 -5,8 -6,5 - - - - -
12.02.2019 13:00:00 - - - - - - -
12.02.2019 12:00:00 -7,2 -8,1 7 4 40 22 S
12.02.2019 11:00:00 -7,3 -8,2 21 11 45 25 W
12.02.2019 10:00:00 -7,8 -8,7 29 15 - - WNW
12.02.2019 09:00:00 -8,5 -9,6 - - - - -
12.02.2019 08:00:00 -8,7 -9,8 - - - - -
12.02.2019 07:00:00 -8,6 -9,7 51 27 - - WNW
12.02.2019 06:00:00 -8,6 -9,7 - - - - -
12.02.2019 05:00:00 -8,8 -9,9 32 18 - - NW
12.02.2019 04:00:00 -8,5 -9,6 - - - - -
12.02.2019 03:00:00 -8,5 -9,6 - - - - -
12.02.2019 02:00:00 -8,4 -9,4 32 18 - - NW
12.02.2019 01:00:00 -8,3 -9,4 - - - - -

tt = Température de l'air
td = dewpoint
ff = Vitesse du vent
fx = gusts
dd = Direction du vent

stations d'obs. à proximité